Accueil
METAR-TAF:

METAR-TAF

Aéroports :

Luxembourg, Luxembourg

Aéroport de Luxembourg-Findel

latitude: 49-37N, longitude: 006-13E, altitude: 376 m

Observation

Le bulletin a été fait il y a 30 minutes, à 21:20 UTC
Vent 7 kt de nord-est
Température 6°C
Humidité 52%
Pression 1023 hPa
Visibilité 10 km ou plus
pas de nuages en-dessous de 1500 mètres et pas de cumulonimbus.

METAR: ELLX 232120Z 04007KT CAVOK 06/M03 Q1023 NOSIG

Heure: 23:50 (21:50 UTC)

Prévision

Le bulletin a été fait il y a 4 heures et 50 minutes, à 17:00 UTC
Prévision valable du 23 à 18 UTC au 24 à 24 UTC
Vent 5 kt de nord
Visibilité 10 km ou plus
pas de nuages en-dessous de 1500 mètres et pas de cumulonimbus.
Evoluant progressivement
du 24 à 04 UTC au 24 à 07 UTC
Vent 5 kt de ouest/sud-ouest

TAF: ELLX 231700Z 2318/2424 36005KT CAVOK BECMG 2404/2407 25005KT

Observations et prévisions météorologiques de plus de 4000 aéroports (messages METAR et TAF).

Les stations disponibles sont représentées par des disques jaunes et rouges sur la carte.

Passer la souris dessus pour voir le nom de la station.

Cliquer dessus pour voir les observations et prévisions météorologiques.

Pour changer de carte: cliquez sur les boutons verts avec une croix noire pour zoomer, sur le bouton vert avec un tiret pour effectuer un zoom arrière, ou sur les flèches vertes pour les cartes adjacentes.


METAR-TAF: